Time,TemperatureF,DewpointF,PressureIn,WindDirection,WindDirectionDegrees,WindSpeedMPH,WindSpeedGustMPH,Humidity,HourlyPrecipIn,Conditions,Clouds,dailyrainin,SolarRadiationWatts/m^2,SoftwareType,DateUTC
2013-12-02 00:02:00,28.0,25.0,-100.00,South,182,2.0,3.0,90,0.00,,,0.00,0.000000,,2013-12-02 05:02:00,
2013-12-02 00:12:00,27.0,25.0,-100.00,South,176,2.0,3.0,91,0.00,,,0.00,0.000000,,2013-12-02 05:12:00,
2013-12-02 00:43:00,27.0,25.0,-100.00,South,176,2.0,3.0,91,0.00,,,0.00,0.000000,,2013-12-02 05:43:00,
2013-12-02 00:53:00,27.0,25.0,-100.00,South,176,2.0,3.0,91,0.00,,,0.00,0.000000,,2013-12-02 05:53:00,
2013-12-02 01:02:00,27.0,25.0,-100.00,South,176,2.0,3.0,91,0.00,,,0.00,0.000000,,2013-12-02 06:02:00,
2013-12-02 01:12:00,28.0,25.0,-100.00,South,188,2.0,5.0,89,0.00,,,0.00,0.000000,,2013-12-02 06:12:00,
2013-12-02 01:42:00,28.0,25.0,-100.00,South,188,2.0,5.0,89,0.00,,,0.00,0.000000,,2013-12-02 06:42:00,
2013-12-02 01:52:00,28.0,25.0,-100.00,South,188,2.0,5.0,89,0.00,,,0.00,0.000000,,2013-12-02 06:52:00,
2013-12-02 02:01:00,28.0,25.0,-100.00,South,188,2.0,5.0,89,0.00,,,0.00,0.000000,,2013-12-02 07:01:00,
2013-12-02 02:12:00,26.0,23.0,-100.00,South,187,2.0,5.0,87,0.00,,,0.00,0.000000,,2013-12-02 07:12:00,
2013-12-02 02:42:00,26.0,23.0,-100.00,South,187,2.0,5.0,87,0.00,,,0.00,0.000000,,2013-12-02 07:42:00,
2013-12-02 02:52:00,26.0,23.0,-100.00,South,187,2.0,5.0,87,0.00,,,0.00,0.000000,,2013-12-02 07:52:00,
2013-12-02 03:01:00,26.0,23.0,-100.00,South,187,2.0,5.0,87,0.00,,,0.00,0.000000,,2013-12-02 08:01:00,
2013-12-02 03:42:00,21.0,19.0,-100.00,SW,233,0.0,3.0,91,0.00,,,0.00,0.000000,,2013-12-02 08:42:00,
2013-12-02 03:52:00,21.0,19.0,-100.00,SW,233,0.0,3.0,91,0.00,,,0.00,0.000000,,2013-12-02 08:52:00,
2013-12-02 04:02:00,21.0,19.0,-100.00,SW,233,0.0,3.0,91,0.00,,,0.00,0.000000,,2013-12-02 09:02:00,
2013-12-02 04:11:00,21.0,19.0,-100.00,SW,233,0.0,3.0,91,0.00,,,0.00,0.000000,,2013-12-02 09:11:00,
2013-12-02 05:12:00,18.0,16.0,-100.00,SSE,163,0.0,3.0,91,-99.99,,,0.00,0.000000,,2013-12-02 10:12:00,
2013-12-02 06:12:00,22.0,20.0,-100.00,SSE,164,4.0,5.0,93,0.00,,,0.00,0.000000,,2013-12-02 11:12:00,
2013-12-02 06:42:00,22.0,20.0,-100.00,SSE,164,4.0,5.0,93,0.00,,,0.00,0.000000,,2013-12-02 11:42:00,
2013-12-02 06:53:00,22.0,20.0,-100.00,SSE,164,4.0,5.0,93,0.00,,,0.00,0.000000,,2013-12-02 11:53:00,
2013-12-02 07:02:00,22.0,20.0,-100.00,SSE,164,4.0,5.0,93,0.00,,,0.00,0.000000,,2013-12-02 12:02:00,
2013-12-02 07:12:00,22.0,20.0,-100.00,SSE,159,3.0,5.0,92,0.00,,,0.00,0.000000,,2013-12-02 12:12:00,
2013-12-02 07:42:00,22.0,20.0,-100.00,SSE,159,3.0,5.0,92,0.00,,,0.00,0.000000,,2013-12-02 12:42:00,
2013-12-02 07:52:00,22.0,20.0,-100.00,SSE,159,3.0,5.0,92,0.00,,,0.00,0.000000,,2013-12-02 12:52:00,
2013-12-02 08:01:00,22.0,20.0,-100.00,SSE,159,3.0,5.0,92,0.00,,,0.00,0.000000,,2013-12-02 13:01:00,
2013-12-02 08:42:00,23.0,21.0,-100.00,SSE,165,2.0,4.0,92,0.00,,,0.00,0.000000,,2013-12-02 13:42:00,
2013-12-02 08:52:00,23.0,21.0,-100.00,SSE,165,2.0,4.0,92,0.00,,,0.00,0.000000,,2013-12-02 13:52:00,
2013-12-02 09:02:00,23.0,21.0,-100.00,SSE,165,2.0,4.0,92,0.00,,,0.00,0.000000,,2013-12-02 14:02:00,
2013-12-02 09:11:00,23.0,21.0,-100.00,SSE,165,2.0,4.0,92,0.00,,,0.00,0.000000,,2013-12-02 14:11:00,
2013-12-02 09:12:00,24.0,22.0,-100.00,SSE,164,3.0,4.0,93,0.00,,,0.00,24.000000,,2013-12-02 14:12:00,
2013-12-02 09:42:00,24.0,22.0,-100.00,SSE,164,3.0,4.0,93,0.00,,,0.00,24.000000,,2013-12-02 14:42:00,
2013-12-02 09:52:00,24.0,22.0,-100.00,SSE,164,3.0,4.0,93,0.00,,,0.00,24.000000,,2013-12-02 14:52:00,
2013-12-02 10:02:00,24.0,22.0,-100.00,SSE,164,3.0,4.0,93,0.00,,,0.00,24.000000,,2013-12-02 15:02:00,
2013-12-02 10:12:00,26.0,24.0,-100.00,SSE,153,2.0,5.0,93,0.00,,,0.00,76.000000,,2013-12-02 15:12:00,
2013-12-02 10:43:00,26.0,24.0,-100.00,SSE,153,2.0,5.0,93,0.00,,,0.00,76.000000,,2013-12-02 15:43:00,
2013-12-02 10:54:00,26.0,24.0,-100.00,SSE,153,2.0,5.0,93,0.00,,,0.00,76.000000,,2013-12-02 15:54:00,
2013-12-02 11:03:00,26.0,24.0,-100.00,SSE,153,2.0,5.0,93,0.00,,,0.00,76.000000,,2013-12-02 16:03:00,
2013-12-02 11:12:00,28.0,26.0,-100.00,SSE,166,2.0,5.0,93,0.00,,,0.00,110.000000,,2013-12-02 16:12:00,
2013-12-02 11:43:00,28.0,26.0,-100.00,SSE,166,2.0,5.0,93,0.00,,,0.00,110.000000,,2013-12-02 16:43:00,
2013-12-02 11:53:00,28.0,26.0,-100.00,SSE,166,2.0,5.0,93,0.00,,,0.00,110.000000,,2013-12-02 16:53:00,
2013-12-02 12:02:00,28.0,26.0,-100.00,SSE,166,2.0,5.0,93,0.00,,,0.00,110.000000,,2013-12-02 17:02:00,
2013-12-02 12:12:00,30.0,28.0,-100.00,SSE,166,2.0,5.0,91,0.00,,,0.00,150.000000,,2013-12-02 17:12:00,
2013-12-02 12:42:00,30.0,28.0,-100.00,SSE,166,2.0,5.0,91,0.00,,,0.00,150.000000,,2013-12-02 17:42:00,
2013-12-02 12:53:00,30.0,28.0,-100.00,SSE,166,2.0,5.0,91,0.00,,,0.00,150.000000,,2013-12-02 17:53:00,
2013-12-02 13:02:00,30.0,28.0,-100.00,SSE,166,2.0,5.0,91,0.00,,,0.00,150.000000,,2013-12-02 18:02:00,
2013-12-02 13:12:00,32.0,26.0,-100.00,South,182,2.0,6.0,78,0.00,,,0.00,226.000000,,2013-12-02 18:12:00,
2013-12-02 13:42:00,32.0,26.0,-100.00,South,182,2.0,6.0,78,0.00,,,0.00,226.000000,,2013-12-02 18:42:00,
2013-12-02 13:53:00,32.0,26.0,-100.00,South,182,2.0,6.0,78,0.00,,,0.00,226.000000,,2013-12-02 18:53:00,
2013-12-02 14:02:00,32.0,26.0,-100.00,South,182,2.0,6.0,78,0.00,,,0.00,226.000000,,2013-12-02 19:02:00,
2013-12-02 14:42:00,33.0,24.0,-100.00,SE,134,3.0,6.0,69,0.00,,,0.00,220.000000,,2013-12-02 19:42:00,
2013-12-02 14:52:00,33.0,24.0,-100.00,SE,134,3.0,6.0,69,0.00,,,0.00,220.000000,,2013-12-02 19:52:00,
2013-12-02 15:02:00,33.0,24.0,-100.00,SE,134,3.0,6.0,69,0.00,,,0.00,220.000000,,2013-12-02 20:02:00,
2013-12-02 15:11:00,33.0,24.0,-100.00,SE,134,3.0,6.0,69,0.00,,,0.00,220.000000,,2013-12-02 20:11:00,
2013-12-02 15:42:00,33.0,22.0,-100.00,SE,132,4.0,7.0,64,0.00,,,0.00,122.000000,,2013-12-02 20:42:00,
2013-12-02 15:52:00,33.0,22.0,-100.00,SE,132,4.0,7.0,64,0.00,,,0.00,122.000000,,2013-12-02 20:52:00,
2013-12-02 16:02:00,33.0,22.0,-100.00,SE,132,4.0,7.0,64,0.00,,,0.00,122.000000,,2013-12-02 21:02:00,
2013-12-02 16:11:00,33.0,22.0,-100.00,SE,132,4.0,7.0,64,0.00,,,0.00,122.000000,,2013-12-02 21:11:00,
2013-12-02 16:12:00,32.0,21.0,-100.00,SSE,147,3.0,7.0,64,0.00,,,0.00,67.000000,,2013-12-02 21:12:00,
2013-12-02 16:43:00,32.0,21.0,-100.00,SSE,147,3.0,7.0,64,0.00,,,0.00,67.000000,,2013-12-02 21:43:00,
2013-12-02 16:53:00,32.0,21.0,-100.00,SSE,147,3.0,7.0,64,0.00,,,0.00,67.000000,,2013-12-02 21:53:00,
2013-12-02 17:03:00,32.0,21.0,-100.00,SSE,147,3.0,7.0,64,0.00,,,0.00,67.000000,,2013-12-02 22:03:00,
2013-12-02 17:12:00,31.0,24.0,-100.00,ESE,115,4.0,7.0,74,0.00,,,0.00,11.000000,,2013-12-02 22:12:00,
2013-12-02 17:43:00,31.0,24.0,-100.00,ESE,115,4.0,7.0,74,0.00,,,0.00,11.000000,,2013-12-02 22:43:00,
2013-12-02 17:53:00,31.0,24.0,-100.00,ESE,115,4.0,7.0,74,0.00,,,0.00,11.000000,,2013-12-02 22:53:00,
2013-12-02 18:02:00,31.0,24.0,-100.00,ESE,115,4.0,7.0,74,0.00,,,0.00,11.000000,,2013-12-02 23:02:00,
2013-12-02 18:42:00,30.0,23.0,-100.00,ESE,115,3.0,7.0,75,0.00,,,0.00,0.000000,,2013-12-02 23:42:00,
2013-12-02 18:53:00,30.0,23.0,-100.00,ESE,115,3.0,7.0,75,0.00,,,0.00,0.000000,,2013-12-02 23:53:00,
2013-12-02 19:02:00,30.0,23.0,-100.00,ESE,115,3.0,7.0,75,0.00,,,0.00,0.000000,,2013-12-03 00:02:00,
2013-12-02 19:11:00,30.0,23.0,-100.00,ESE,115,3.0,7.0,75,0.00,,,0.00,0.000000,,2013-12-03 00:11:00,
2013-12-02 19:42:00,30.0,24.0,-100.00,SE,124,5.0,9.0,77,0.00,,,0.00,0.000000,,2013-12-03 00:42:00,
2013-12-02 19:52:00,30.0,24.0,-100.00,SE,124,5.0,9.0,77,0.00,,,0.00,0.000000,,2013-12-03 00:52:00,
2013-12-02 20:01:00,30.0,24.0,-100.00,SE,124,5.0,9.0,77,0.00,,,0.00,0.000000,,2013-12-03 01:01:00,
2013-12-02 20:11:00,30.0,24.0,-100.00,SE,124,5.0,9.0,77,0.00,,,0.00,0.000000,,2013-12-03 01:11:00,
2013-12-02 20:42:00,29.0,23.0,-100.00,SE,127,5.0,9.0,78,0.00,,,0.00,0.000000,,2013-12-03 01:42:00,
2013-12-02 20:52:00,29.0,23.0,-100.00,SE,127,5.0,9.0,78,0.00,,,0.00,0.000000,,2013-12-03 01:52:00,
2013-12-02 21:02:00,29.0,23.0,-100.00,SE,127,5.0,9.0,78,0.00,,,0.00,0.000000,,2013-12-03 02:02:00,
2013-12-02 21:11:00,29.0,23.0,-100.00,SE,127,5.0,9.0,78,0.00,,,0.00,0.000000,,2013-12-03 02:11:00,
2013-12-02 21:42:00,29.0,23.0,-100.00,ESE,115,5.0,9.0,77,0.00,,,0.00,0.000000,,2013-12-03 02:42:00,
2013-12-02 21:52:00,29.0,23.0,-100.00,ESE,115,5.0,9.0,77,0.00,,,0.00,0.000000,,2013-12-03 02:52:00,
2013-12-02 22:02:00,29.0,23.0,-100.00,ESE,115,5.0,9.0,77,0.00,,,0.00,0.000000,,2013-12-03 03:02:00,
2013-12-02 22:11:00,29.0,23.0,-100.00,ESE,115,5.0,9.0,77,0.00,,,0.00,0.000000,,2013-12-03 03:11:00,
2013-12-02 22:12:00,28.0,21.0,-100.00,ESE,113,5.0,8.0,75,0.00,,,0.00,0.000000,,2013-12-03 03:12:00,
2013-12-02 22:43:00,28.0,21.0,-100.00,ESE,113,5.0,8.0,75,0.00,,,0.00,0.000000,,2013-12-03 03:43:00,
2013-12-02 22:54:00,28.0,21.0,-100.00,ESE,113,5.0,8.0,75,0.00,,,0.00,0.000000,,2013-12-03 03:54:00,
2013-12-02 23:03:00,28.0,21.0,-100.00,ESE,113,5.0,8.0,75,0.00,,,0.00,0.000000,,2013-12-03 04:03:00,
2013-12-02 23:12:00,28.0,21.0,-100.00,ESE,103,5.0,9.0,76,0.00,,,0.00,0.000000,,2013-12-03 04:12:00,
2013-12-02 23:43:00,28.0,21.0,-100.00,ESE,103,5.0,9.0,76,0.00,,,0.00,0.000000,,2013-12-03 04:43:00,
2013-12-02 23:52:00,28.0,21.0,-100.00,ESE,103,5.0,9.0,76,0.00,,,0.00,0.000000,,2013-12-03 04:52:00,